LFPM 201800Z AUTO 35003KT 320V030 9999 FEW025/// SCT035/// BKN041/// ///CB 20/18 Q1005

Nombre de NOTAM : 3    
LFFA-E0352/21 
Q) LFFF/QFALT/ V/NBO/ A/000/999/4849N00237E005
A) LFPL  LOGNES EMERAINVILLE
B) 2021 Jan 28  11:52 C) 2021 Jun 30  03:50
D) SS-SR
E) UTILISATION AD POSSIBLE DE NUIT POUR AVITAILLEMENT PAR OPERATEURS
 'SMUH' AUTORISES.
LFFA-E1880/21 
Q) LFFF/QSTAH/IV/ BO/ A/000/999/4849N00237E005
A) LFPL  LOGNES EMERAINVILLE
B) 2021 Jun 01  08:13 C) 2021 Jun 30  23:59
E) HORAIRES DU CONTROLE D'AERODROME:
LUN-JEU: 0700-1030 1200-1800 SAUF LES 07 09 21: NON ASSURE
VEN-DIM: 0700-1800.
LFFA-P0257/21 
Q) LFFF/QOBCE/IV/  M/ A/000/999/4849N00237E005
A) LFPL  LOGNES EMERAINVILLE
B) 2021 Jan 28  13:19 C) 2021 Jun 30  23:59
E) ARBRES IMPACTANT LES SERVITUDES AERONAUTIQUES A PROXIMITE THR 26
 NON REVETU :
-PSN : 484911N 0023802E
       484911N 0023805E
       484911N 0023801E
-ALT AU SOMMET : 422FT
-HAUTEUR : 68FT
-BALISAGE : NIL.
  © SIA.